sensor_id;sensor_type;location;lat;lon;timestamp;pressure;altitude;pressure_sealevel;temperature;humidity
5522;BME280;2783;48.730;8.006;2023-04-09T00:01:23;100758.50;;;12.01;81.62
5522;BME280;2783;48.730;8.006;2023-04-09T00:03:49;100755.88;;;11.99;81.86
5522;BME280;2783;48.730;8.006;2023-04-09T00:06:14;100755.97;;;11.94;82.59
5522;BME280;2783;48.730;8.006;2023-04-09T00:08:39;100747.22;;;11.89;82.04
5522;BME280;2783;48.730;8.006;2023-04-09T00:11:05;100748.25;;;11.85;82.04
5522;BME280;2783;48.730;8.006;2023-04-09T00:13:30;100746.56;;;11.81;81.81
5522;BME280;2783;48.730;8.006;2023-04-09T00:15:55;100743.16;;;11.75;81.88
5522;BME280;2783;48.730;8.006;2023-04-09T00:18:21;100752.19;;;11.71;81.91
5522;BME280;2783;48.730;8.006;2023-04-09T00:20:46;100749.66;;;11.65;82.20
5522;BME280;2783;48.730;8.006;2023-04-09T00:23:11;100747.03;;;11.63;82.51
5522;BME280;2783;48.730;8.006;2023-04-09T00:25:36;100749.78;;;11.59;82.85
5522;BME280;2783;48.730;8.006;2023-04-09T00:28:02;100747.25;;;11.54;82.80
5522;BME280;2783;48.730;8.006;2023-04-09T00:30:27;100751.72;;;11.52;82.77
5522;BME280;2783;48.730;8.006;2023-04-09T00:32:53;100747.31;;;11.50;83.65
5522;BME280;2783;48.730;8.006;2023-04-09T00:35:18;100746.59;;;11.43;84.00
5522;BME280;2783;48.730;8.006;2023-04-09T00:37:44;100747.56;;;11.41;83.40
5522;BME280;2783;48.730;8.006;2023-04-09T00:40:09;100748.50;;;11.40;84.34
5522;BME280;2783;48.730;8.006;2023-04-09T00:42:35;100750.31;;;11.38;83.45
5522;BME280;2783;48.730;8.006;2023-04-09T00:45:01;100749.47;;;11.36;83.73
5522;BME280;2783;48.730;8.006;2023-04-09T00:47:27;100744.22;;;11.33;83.17
5522;BME280;2783;48.730;8.006;2023-04-09T00:49:54;100744.34;;;11.28;83.96
5522;BME280;2783;48.730;8.006;2023-04-09T00:52:19;100741.63;;;11.30;83.22
5522;BME280;2783;48.730;8.006;2023-04-09T00:54:45;100745.19;;;11.29;83.67
5522;BME280;2783;48.730;8.006;2023-04-09T00:57:11;100743.44;;;11.28;82.96
5522;BME280;2783;48.730;8.006;2023-04-09T00:59:37;100745.22;;;11.27;83.06
5522;BME280;2783;48.730;8.006;2023-04-09T01:02:02;100753.22;;;11.27;83.10
5522;BME280;2783;48.730;8.006;2023-04-09T01:04:27;100752.41;;;11.24;83.67
5522;BME280;2783;48.730;8.006;2023-04-09T01:07:42;100751.53;;;11.25;83.69
5522;BME280;2783;48.730;8.006;2023-04-09T01:09:42;100747.19;;;11.19;83.35
5522;BME280;2783;48.730;8.006;2023-04-09T01:12:25;100751.69;;;11.17;84.16
5522;BME280;2783;48.730;8.006;2023-04-09T01:14:55;100745.53;;;11.14;83.25
5522;BME280;2783;48.730;8.006;2023-04-09T01:17:24;100749.13;;;11.13;82.95
5522;BME280;2783;48.730;8.006;2023-04-09T01:19:57;100740.25;;;11.12;82.82
5522;BME280;2783;48.730;8.006;2023-04-09T01:22:30;100745.63;;;11.11;83.26
5522;BME280;2783;48.730;8.006;2023-04-09T01:25:08;100755.44;;;11.09;83.75
5522;BME280;2783;48.730;8.006;2023-04-09T01:27:40;100742.19;;;11.06;83.75
5522;BME280;2783;48.730;8.006;2023-04-09T01:30:07;100740.44;;;11.05;84.42
5522;BME280;2783;48.730;8.006;2023-04-09T01:32:34;100751.19;;;11.02;84.42
5522;BME280;2783;48.730;8.006;2023-04-09T01:35:01;100746.69;;;11.02;85.55
5522;BME280;2783;48.730;8.006;2023-04-09T01:37:26;100755.56;;;11.03;84.65
5522;BME280;2783;48.730;8.006;2023-04-09T01:39:52;100752.00;;;11.04;85.21
5522;BME280;2783;48.730;8.006;2023-04-09T01:42:18;100750.22;;;11.04;85.43
5522;BME280;2783;48.730;8.006;2023-04-09T01:44:43;100753.81;;;11.03;84.35
5522;BME280;2783;48.730;8.006;2023-04-09T01:47:09;100752.84;;;11.06;84.77
5522;BME280;2783;48.730;8.006;2023-04-09T01:49:35;100755.53;;;11.04;84.70
5522;BME280;2783;48.730;8.006;2023-04-09T01:52:01;100751.19;;;11.02;84.80
5522;BME280;2783;48.730;8.006;2023-04-09T01:54:27;100751.22;;;11.00;84.76
5522;BME280;2783;48.730;8.006;2023-04-09T01:56:52;100756.56;;;10.99;85.05
5522;BME280;2783;48.730;8.006;2023-04-09T01:59:17;100755.84;;;10.92;85.73
5522;BME280;2783;48.730;8.006;2023-04-09T02:01:44;100751.50;;;10.87;85.89
5522;BME280;2783;48.730;8.006;2023-04-09T02:04:15;100743.59;;;10.84;86.64
5522;BME280;2783;48.730;8.006;2023-04-09T02:06:58;100758.78;;;10.79;87.38
5522;BME280;2783;48.730;8.006;2023-04-09T02:09:29;100750.00;;;10.75;86.70
5522;BME280;2783;48.730;8.006;2023-04-09T02:11:56;100752.72;;;10.72;87.57
5522;BME280;2783;48.730;8.006;2023-04-09T02:14:22;100751.91;;;10.69;87.05
5522;BME280;2783;48.730;8.006;2023-04-09T02:16:49;100749.34;;;10.62;87.90
5522;BME280;2783;48.730;8.006;2023-04-09T02:19:14;100753.16;;;10.52;88.20
5522;BME280;2783;48.730;8.006;2023-04-09T02:21:39;100756.84;;;10.45;88.42
5522;BME280;2783;48.730;8.006;2023-04-09T02:24:05;100748.09;;;10.39;87.67
5522;BME280;2783;48.730;8.006;2023-04-09T02:26:30;100750.91;;;10.31;88.35
5522;BME280;2783;48.730;8.006;2023-04-09T02:28:55;100751.09;;;10.22;88.34
5522;BME280;2783;48.730;8.006;2023-04-09T02:31:21;100750.31;;;10.17;88.66
5522;BME280;2783;48.730;8.006;2023-04-09T02:33:46;100758.34;;;10.14;89.52
5522;BME280;2783;48.730;8.006;2023-04-09T02:36:11;100750.44;;;10.10;89.04
5522;BME280;2783;48.730;8.006;2023-04-09T02:38:40;100756.69;;;10.06;89.03
5522;BME280;2783;48.730;8.006;2023-04-09T02:41:06;100753.19;;;10.04;89.40
5522;BME280;2783;48.730;8.006;2023-04-09T02:43:31;100750.56;;;10.02;90.32
5522;BME280;2783;48.730;8.006;2023-04-09T02:45:57;100760.41;;;9.97;90.56
5522;BME280;2783;48.730;8.006;2023-04-09T02:48:22;100751.59;;;9.94;90.64
5522;BME280;2783;48.730;8.006;2023-04-09T02:50:47;100754.31;;;9.91;90.00
5522;BME280;2783;48.730;8.006;2023-04-09T02:53:12;100751.81;;;9.83;90.24
5522;BME280;2783;48.730;8.006;2023-04-09T02:55:38;100755.41;;;9.79;91.10
5522;BME280;2783;48.730;8.006;2023-04-09T02:58:03;100755.53;;;9.73;90.96
5522;BME280;2783;48.730;8.006;2023-04-09T03:00:28;100750.28;;;9.70;91.22
5522;BME280;2783;48.730;8.006;2023-04-09T03:02:53;100751.25;;;9.65;91.91
5522;BME280;2783;48.730;8.006;2023-04-09T03:05:19;100753.03;;;9.63;91.47
5522;BME280;2783;48.730;8.006;2023-04-09T03:07:45;100747.78;;;9.60;92.02
5522;BME280;2783;48.730;8.006;2023-04-09T03:10:11;100748.63;;;9.63;92.53
5522;BME280;2783;48.730;8.006;2023-04-09T03:12:36;100741.50;;;9.65;92.66
5522;BME280;2783;48.730;8.006;2023-04-09T03:15:01;100740.66;;;9.63;92.42
5522;BME280;2783;48.730;8.006;2023-04-09T03:17:28;100741.59;;;9.59;92.74
5522;BME280;2783;48.730;8.006;2023-04-09T03:19:55;100737.25;;;9.55;92.28
5522;BME280;2783;48.730;8.006;2023-04-09T03:22:21;100746.16;;;9.51;92.13
5522;BME280;2783;48.730;8.006;2023-04-09T03:24:46;100736.47;;;9.50;92.55
5522;BME280;2783;48.730;8.006;2023-04-09T03:27:11;100742.66;;;9.49;92.39
5522;BME280;2783;48.730;8.006;2023-04-09T03:29:36;100747.13;;;9.46;92.40
5522;BME280;2783;48.730;8.006;2023-04-09T03:32:02;100745.41;;;9.43;92.77
5522;BME280;2783;48.730;8.006;2023-04-09T03:34:27;100739.28;;;9.40;92.72
5522;BME280;2783;48.730;8.006;2023-04-09T03:36:52;100737.56;;;9.37;92.92
5522;BME280;2783;48.730;8.006;2023-04-09T03:39:17;100735.91;;;9.30;92.54
5522;BME280;2783;48.730;8.006;2023-04-09T03:41:43;100743.06;;;9.25;92.45
5522;BME280;2783;48.730;8.006;2023-04-09T03:44:08;100740.50;;;9.19;92.73
5522;BME280;2783;48.730;8.006;2023-04-09T03:46:33;100740.63;;;9.10;92.53
5522;BME280;2783;48.730;8.006;2023-04-09T03:48:58;100743.44;;;9.01;92.69
5522;BME280;2783;48.730;8.006;2023-04-09T03:51:24;100737.34;;;8.94;92.70
5522;BME280;2783;48.730;8.006;2023-04-09T03:53:51;100740.97;;;8.89;92.53
5522;BME280;2783;48.730;8.006;2023-04-09T03:56:16;100740.19;;;8.81;93.13
5522;BME280;2783;48.730;8.006;2023-04-09T03:58:41;100743.00;;;8.69;93.36
5522;BME280;2783;48.730;8.006;2023-04-09T04:01:06;100749.31;;;8.59;93.63
5522;BME280;2783;48.730;8.006;2023-04-09T04:03:32;100743.25;;;8.51;93.92
5522;BME280;2783;48.730;8.006;2023-04-09T04:06:00;100736.28;;;8.42;94.17
5522;BME280;2783;48.730;8.006;2023-04-09T04:08:29;100738.13;;;8.36;94.60
5522;BME280;2783;48.730;8.006;2023-04-09T04:10:54;100739.06;;;8.32;94.74
5522;BME280;2783;48.730;8.006;2023-04-09T04:13:20;100746.16;;;8.30;95.11
5522;BME280;2783;48.730;8.006;2023-04-09T04:15:45;100747.03;;;8.29;95.30
5522;BME280;2783;48.730;8.006;2023-04-09T04:18:10;100743.59;;;8.24;95.29
5522;BME280;2783;48.730;8.006;2023-04-09T04:20:36;100748.91;;;8.24;95.40
5522;BME280;2783;48.730;8.006;2023-04-09T04:23:01;100755.06;;;8.21;95.38
5522;BME280;2783;48.730;8.006;2023-04-09T04:25:27;100753.31;;;8.17;95.49
5522;BME280;2783;48.730;8.006;2023-04-09T04:27:52;100749.00;;;8.12;95.59
5522;BME280;2783;48.730;8.006;2023-04-09T04:30:19;100751.69;;;8.04;95.76
5522;BME280;2783;48.730;8.006;2023-04-09T04:32:44;100757.97;;;7.97;95.77
5522;BME280;2783;48.730;8.006;2023-04-09T04:35:10;100755.38;;;7.91;96.03
5522;BME280;2783;48.730;8.006;2023-04-09T04:37:35;100758.97;;;7.87;96.42
5522;BME280;2783;48.730;8.006;2023-04-09T04:40:01;100768.75;;;7.80;96.54
5522;BME280;2783;48.730;8.006;2023-04-09T04:42:26;100767.94;;;7.72;96.47
5522;BME280;2783;48.730;8.006;2023-04-09T04:44:52;100767.06;;;7.70;96.89
5522;BME280;2783;48.730;8.006;2023-04-09T04:47:17;100760.03;;;7.66;97.01
5522;BME280;2783;48.730;8.006;2023-04-09T04:49:43;100764.47;;;7.63;97.59
5522;BME280;2783;48.730;8.006;2023-04-09T04:52:08;100762.75;;;7.60;97.26
5522;BME280;2783;48.730;8.006;2023-04-09T04:54:34;100761.84;;;7.60;97.38
5522;BME280;2783;48.730;8.006;2023-04-09T04:56:59;100769.81;;;7.58;97.30
5522;BME280;2783;48.730;8.006;2023-04-09T04:59:25;100759.25;;;7.55;97.87
5522;BME280;2783;48.730;8.006;2023-04-09T05:01:50;100768.97;;;7.53;97.85
5522;BME280;2783;48.730;8.006;2023-04-09T05:04:15;100767.25;;;7.49;98.04
5522;BME280;2783;48.730;8.006;2023-04-09T05:06:40;100766.38;;;7.49;98.08
5522;BME280;2783;48.730;8.006;2023-04-09T05:09:06;100767.28;;;7.48;97.88
5522;BME280;2783;48.730;8.006;2023-04-09T05:11:31;100774.28;;;7.50;98.21
5522;BME280;2783;48.730;8.006;2023-04-09T05:13:56;100776.03;;;7.54;97.80
5522;BME280;2783;48.730;8.006;2023-04-09T05:16:21;100775.13;;;7.55;98.02
5522;BME280;2783;48.730;8.006;2023-04-09T05:18:47;100776.88;;;7.58;98.80
5522;BME280;2783;48.730;8.006;2023-04-09T05:21:12;100777.72;;;7.61;98.91
5522;BME280;2783;48.730;8.006;2023-04-09T05:23:37;100779.41;;;7.71;100.00
5522;BME280;2783;48.730;8.006;2023-04-09T05:26:03;100776.53;;;7.94;100.00
5522;BME280;2783;48.730;8.006;2023-04-09T05:28:28;100781.13;;;8.59;100.00
5522;BME280;2783;48.730;8.006;2023-04-09T05:30:53;100774.13;;;9.73;100.00
5522;BME280;2783;48.730;8.006;2023-04-09T05:33:18;100773.03;;;10.76;96.17
5522;BME280;2783;48.730;8.006;2023-04-09T05:35:44;100783.25;;;12.06;90.40
5522;BME280;2783;48.730;8.006;2023-04-09T05:38:09;100777.34;;;12.88;82.67
5522;BME280;2783;48.730;8.006;2023-04-09T05:40:35;100774.19;;;13.04;77.81
5522;BME280;2783;48.730;8.006;2023-04-09T05:43:00;100772.44;;;13.03;74.99
5522;BME280;2783;48.730;8.006;2023-04-09T05:45:25;100784.00;;;12.73;73.33
5522;BME280;2783;48.730;8.006;2023-04-09T05:47:52;100784.91;;;12.10;73.08
5522;BME280;2783;48.730;8.006;2023-04-09T05:50:18;100786.09;;;11.63;74.69
5522;BME280;2783;48.730;8.006;2023-04-09T05:52:43;100778.59;;;11.42;77.98
5522;BME280;2783;48.730;8.006;2023-04-09T05:55:08;100785.13;;;11.67;78.49
5522;BME280;2783;48.730;8.006;2023-04-09T05:57:33;100777.03;;;12.05;77.97
5522;BME280;2783;48.730;8.006;2023-04-09T05:59:59;100781.44;;;12.69;76.18
5522;BME280;2783;48.730;8.006;2023-04-09T06:02:25;100777.31;;;13.18;73.63
5522;BME280;2783;48.730;8.006;2023-04-09T06:04:50;100784.22;;;13.53;72.51
5522;BME280;2783;48.730;8.006;2023-04-09T06:07:15;100780.63;;;14.80;66.20
5522;BME280;2783;48.730;8.006;2023-04-09T06:09:41;100786.88;;;16.12;60.35
5522;BME280;2783;48.730;8.006;2023-04-09T06:12:08;100787.44;;;17.17;54.10
5522;BME280;2783;48.730;8.006;2023-04-09T06:14:33;100778.50;;;17.72;50.65
5522;BME280;2783;48.730;8.006;2023-04-09T06:16:59;100781.63;;;17.99;49.43
5522;BME280;2783;48.730;8.006;2023-04-09T06:19:24;100758.72;;;17.73;49.23
5522;BME280;2783;48.730;8.006;2023-04-09T06:21:49;100784.41;;;18.31;48.57
5522;BME280;2783;48.730;8.006;2023-04-09T06:24:15;100787.75;;;18.36;48.03
5522;BME280;2783;48.730;8.006;2023-04-09T06:26:40;100789.22;;;19.09;46.07
5522;BME280;2783;48.730;8.006;2023-04-09T06:29:05;100786.63;;;19.85;45.17
5522;BME280;2783;48.730;8.006;2023-04-09T06:31:31;100785.63;;;20.61;43.60
5522;BME280;2783;48.730;8.006;2023-04-09T06:33:56;100787.25;;;21.07;42.14
5522;BME280;2783;48.730;8.006;2023-04-09T06:36:21;100789.03;;;21.49;41.86
5522;BME280;2783;48.730;8.006;2023-04-09T06:38:47;100800.25;;;21.97;40.67
5522;BME280;2783;48.730;8.006;2023-04-09T06:41:12;100798.38;;;22.25;40.00
5522;BME280;2783;48.730;8.006;2023-04-09T06:43:38;100795.91;;;22.34;39.43
5522;BME280;2783;48.730;8.006;2023-04-09T06:46:05;100801.38;;;22.47;39.77
5522;BME280;2783;48.730;8.006;2023-04-09T06:48:30;100800.22;;;22.24;38.72
5522;BME280;2783;48.730;8.006;2023-04-09T06:50:56;100794.28;;;22.44;40.47
5522;BME280;2783;48.730;8.006;2023-04-09T06:53:21;100801.31;;;22.22;39.07
5522;BME280;2783;48.730;8.006;2023-04-09T06:55:46;100795.22;;;22.18;39.62
5522;BME280;2783;48.730;8.006;2023-04-09T06:58:12;100791.34;;;22.35;39.36
5522;BME280;2783;48.730;8.006;2023-04-09T07:00:37;100793.00;;;22.37;39.29
5522;BME280;2783;48.730;8.006;2023-04-09T07:03:02;100776.47;;;21.88;40.00
5522;BME280;2783;48.730;8.006;2023-04-09T07:05:28;100803.44;;;22.04;40.19
5522;BME280;2783;48.730;8.006;2023-04-09T07:07:54;100799.94;;;22.41;39.88
5522;BME280;2783;48.730;8.006;2023-04-09T07:10:20;100806.97;;;22.31;40.22
5522;BME280;2783;48.730;8.006;2023-04-09T07:12:45;100805.22;;;22.30;40.74
5522;BME280;2783;48.730;8.006;2023-04-09T07:15:10;100798.00;;;22.04;40.92
5522;BME280;2783;48.730;8.006;2023-04-09T07:17:35;100801.84;;;21.33;41.46
5522;BME280;2783;48.730;8.006;2023-04-09T07:20:01;100800.66;;;21.51;41.75
5522;BME280;2783;48.730;8.006;2023-04-09T07:22:27;100804.13;;;21.39;42.32
5522;BME280;2783;48.730;8.006;2023-04-09T07:24:52;100803.59;;;21.20;41.95
5522;BME280;2783;48.730;8.006;2023-04-09T07:27:19;100812.28;;;21.25;42.23
5522;BME280;2783;48.730;8.006;2023-04-09T07:29:45;100803.75;;;21.31;41.58
5522;BME280;2783;48.730;8.006;2023-04-09T07:32:10;100807.97;;;20.78;42.54
5522;BME280;2783;48.730;8.006;2023-04-09T07:34:35;100810.53;;;20.52;42.79
5522;BME280;2783;48.730;8.006;2023-04-09T07:37:01;100813.28;;;20.36;43.55
5522;BME280;2783;48.730;8.006;2023-04-09T07:39:26;100813.03;;;20.41;44.11
5522;BME280;2783;48.730;8.006;2023-04-09T07:41:52;100823.09;;;20.08;43.42
5522;BME280;2783;48.730;8.006;2023-04-09T07:44:17;100822.19;;;19.93;44.74
5522;BME280;2783;48.730;8.006;2023-04-09T07:46:42;100824.84;;;20.09;44.14
5522;BME280;2783;48.730;8.006;2023-04-09T07:49:08;100818.66;;;20.22;44.30
5522;BME280;2783;48.730;8.006;2023-04-09T07:51:33;100823.19;;;20.51;42.25
5522;BME280;2783;48.730;8.006;2023-04-09T07:53:58;100825.94;;;20.36;43.99
5522;BME280;2783;48.730;8.006;2023-04-09T07:56:23;100826.56;;;20.25;43.59
5522;BME280;2783;48.730;8.006;2023-04-09T07:58:49;100821.16;;;20.55;41.93
5522;BME280;2783;48.730;8.006;2023-04-09T08:01:15;100829.13;;;20.13;42.53
5522;BME280;2783;48.730;8.006;2023-04-09T08:03:40;100823.19;;;20.06;42.56
5522;BME280;2783;48.730;8.006;2023-04-09T08:06:06;100823.25;;;19.75;45.32
5522;BME280;2783;48.730;8.006;2023-04-09T08:08:32;100826.84;;;20.50;45.02
5522;BME280;2783;48.730;8.006;2023-04-09T08:10:57;100820.56;;;20.93;41.01
5522;BME280;2783;48.730;8.006;2023-04-09T08:13:23;100815.94;;;21.10;41.23
5522;BME280;2783;48.730;8.006;2023-04-09T08:15:49;100816.28;;;20.89;42.65
5522;BME280;2783;48.730;8.006;2023-04-09T08:18:14;100815.56;;;21.02;42.50
5522;BME280;2783;48.730;8.006;2023-04-09T08:20:40;100821.53;;;21.49;41.16
5522;BME280;2783;48.730;8.006;2023-04-09T08:23:12;100820.69;;;21.89;41.14
5522;BME280;2783;48.730;8.006;2023-04-09T08:25:37;100813.06;;;22.08;40.14
5522;BME280;2783;48.730;8.006;2023-04-09T08:28:02;100823.00;;;21.95;40.88
5522;BME280;2783;48.730;8.006;2023-04-09T08:30:28;100822.88;;;21.96;39.98
5522;BME280;2783;48.730;8.006;2023-04-09T08:32:54;100825.59;;;22.23;37.86
5522;BME280;2783;48.730;8.006;2023-04-09T08:35:19;100824.25;;;22.16;38.79
5522;BME280;2783;48.730;8.006;2023-04-09T08:37:44;100817.13;;;22.54;41.02
5522;BME280;2783;48.730;8.006;2023-04-09T08:40:10;100826.81;;;23.08;38.66
5522;BME280;2783;48.730;8.006;2023-04-09T08:42:36;100818.78;;;23.44;37.84
5522;BME280;2783;48.730;8.006;2023-04-09T08:45:07;100815.41;;;23.54;36.30
5522;BME280;2783;48.730;8.006;2023-04-09T08:47:33;100814.41;;;23.55;36.06
5522;BME280;2783;48.730;8.006;2023-04-09T08:50:00;100814.00;;;23.10;36.27
5522;BME280;2783;48.730;8.006;2023-04-09T08:52:32;100815.63;;;22.75;38.61
5522;BME280;2783;48.730;8.006;2023-04-09T08:54:57;100808.72;;;22.96;37.67
5522;BME280;2783;48.730;8.006;2023-04-09T08:57:23;100811.97;;;22.76;35.96
5522;BME280;2783;48.730;8.006;2023-04-09T08:59:48;100804.63;;;22.52;37.19
5522;BME280;2783;48.730;8.006;2023-04-09T09:02:13;100812.94;;;23.00;35.45
5522;BME280;2783;48.730;8.006;2023-04-09T09:04:45;100813.03;;;23.73;34.45
5522;BME280;2783;48.730;8.006;2023-04-09T09:07:11;100823.97;;;23.60;32.93
5522;BME280;2783;48.730;8.006;2023-04-09T09:09:56;100814.81;;;23.74;33.02
5522;BME280;2783;48.730;8.006;2023-04-09T09:12:55;100809.44;;;23.23;34.90
5522;BME280;2783;48.730;8.006;2023-04-09T09:15:26;100817.53;;;22.48;35.78
5522;BME280;2783;48.730;8.006;2023-04-09T09:17:54;100813.94;;;21.82;34.90
5522;BME280;2783;48.730;8.006;2023-04-09T09:20:19;100806.22;;;21.62;38.05
5522;BME280;2783;48.730;8.006;2023-04-09T09:22:49;100815.13;;;21.64;40.00
5522;BME280;2783;48.730;8.006;2023-04-09T09:25:15;100816.44;;;21.85;39.84
5522;BME280;2783;48.730;8.006;2023-04-09T09:27:40;100820.38;;;22.20;39.78
5522;BME280;2783;48.730;8.006;2023-04-09T09:30:05;100816.16;;;22.55;38.72
5522;BME280;2783;48.730;8.006;2023-04-09T09:32:34;100819.00;;;22.27;36.82
5522;BME280;2783;48.730;8.006;2023-04-09T09:35:04;100819.66;;;21.63;38.55
5522;BME280;2783;48.730;8.006;2023-04-09T09:37:30;100822.13;;;21.40;40.72
5522;BME280;2783;48.730;8.006;2023-04-09T09:39:56;100818.94;;;21.33;41.19
5522;BME280;2783;48.730;8.006;2023-04-09T09:42:21;100817.00;;;21.35;40.14
5522;BME280;2783;48.730;8.006;2023-04-09T09:44:46;100809.34;;;21.42;43.01
5522;BME280;2783;48.730;8.006;2023-04-09T09:47:12;100811.22;;;22.48;40.45
5522;BME280;2783;48.730;8.006;2023-04-09T09:49:38;100801.66;;;22.94;39.50
5522;BME280;2783;48.730;8.006;2023-04-09T09:52:05;100806.66;;;23.74;37.49
5522;BME280;2783;48.730;8.006;2023-04-09T09:54:33;100807.75;;;23.95;36.83
5522;BME280;2783;48.730;8.006;2023-04-09T09:57:03;100796.88;;;23.95;36.88
5522;BME280;2783;48.730;8.006;2023-04-09T09:59:31;100797.69;;;23.61;35.07
5522;BME280;2783;48.730;8.006;2023-04-09T10:01:59;100788.81;;;23.21;35.07
5522;BME280;2783;48.730;8.006;2023-04-09T10:04:28;100793.13;;;23.49;33.93
5522;BME280;2783;48.730;8.006;2023-04-09T10:06:54;100788.28;;;23.77;34.13
5522;BME280;2783;48.730;8.006;2023-04-09T10:09:20;100784.97;;;24.32;35.23
5522;BME280;2783;48.730;8.006;2023-04-09T10:11:46;100787.72;;;24.08;33.11
5522;BME280;2783;48.730;8.006;2023-04-09T10:14:12;100790.44;;;23.36;34.01
5522;BME280;2783;48.730;8.006;2023-04-09T10:16:38;100796.09;;;22.70;35.92
5522;BME280;2783;48.730;8.006;2023-04-09T10:19:04;100787.53;;;21.85;36.55
5522;BME280;2783;48.730;8.006;2023-04-09T10:26:31;100778.41;;;21.46;33.37
5522;BME280;2783;48.730;8.006;2023-04-09T10:31:52;100771.72;;;21.92;35.69
5522;BME280;2783;48.730;8.006;2023-04-09T10:34:20;100784.94;;;22.36;37.01
5522;BME280;2783;48.730;8.006;2023-04-09T10:36:48;100767.34;;;22.16;35.03
5522;BME280;2783;48.730;8.006;2023-04-09T10:39:14;100765.16;;;22.60;36.55
5522;BME280;2783;48.730;8.006;2023-04-09T10:41:39;100766.16;;;23.09;35.29
5522;BME280;2783;48.730;8.006;2023-04-09T10:44:06;100763.44;;;23.58;35.10
5522;BME280;2783;48.730;8.006;2023-04-09T10:46:43;100763.31;;;23.72;36.16
5522;BME280;2783;48.730;8.006;2023-04-09T10:51:41;100763.56;;;22.58;34.87
5522;BME280;2783;48.730;8.006;2023-04-09T10:57:15;100767.63;;;21.99;34.31
5522;BME280;2783;48.730;8.006;2023-04-09T11:08:26;100751.91;;;22.43;31.74
5522;BME280;2783;48.730;8.006;2023-04-09T11:10:33;100768.59;;;23.50;28.82
5522;BME280;2783;48.730;8.006;2023-04-09T11:12:58;100765.81;;;23.14;29.96
5522;BME280;2783;48.730;8.006;2023-04-09T11:15:23;100764.81;;;23.15;28.92
5522;BME280;2783;48.730;8.006;2023-04-09T11:17:49;100764.81;;;23.15;31.96
5522;BME280;2783;48.730;8.006;2023-04-09T11:20:15;100766.00;;;21.56;30.87
5522;BME280;2783;48.730;8.006;2023-04-09T11:22:41;100755.91;;;20.47;31.04
5522;BME280;2783;48.730;8.006;2023-04-09T11:25:06;100757.38;;;20.80;33.15
5522;BME280;2783;48.730;8.006;2023-04-09T11:27:37;100763.16;;;20.74;31.07
5522;BME280;2783;48.730;8.006;2023-04-09T11:30:03;100761.41;;;20.45;31.85
5522;BME280;2783;48.730;8.006;2023-04-09T11:32:32;100763.06;;;20.62;33.85
5522;BME280;2783;48.730;8.006;2023-04-09T11:34:57;100765.22;;;20.41;32.37
5522;BME280;2783;48.730;8.006;2023-04-09T11:37:22;100757.41;;;19.46;32.80
5522;BME280;2783;48.730;8.006;2023-04-09T11:39:48;100754.97;;;19.57;32.86
5522;BME280;2783;48.730;8.006;2023-04-09T11:42:15;100753.75;;;18.84;33.22
5522;BME280;2783;48.730;8.006;2023-04-09T11:44:40;100753.00;;;18.97;35.03
5522;BME280;2783;48.730;8.006;2023-04-09T11:47:07;100747.66;;;19.44;33.45
5522;BME280;2783;48.730;8.006;2023-04-09T11:49:33;100755.44;;;20.25;33.11
5522;BME280;2783;48.730;8.006;2023-04-09T11:51:58;100756.38;;;20.53;31.97
5522;BME280;2783;48.730;8.006;2023-04-09T11:54:30;100752.28;;;21.18;32.29
5522;BME280;2783;48.730;8.006;2023-04-09T11:56:57;100748.19;;;21.66;30.92
5522;BME280;2783;48.730;8.006;2023-04-09T11:59:22;100745.88;;;21.33;30.52
5522;BME280;2783;48.730;8.006;2023-04-09T12:01:48;100739.91;;;22.60;30.49
5522;BME280;2783;48.730;8.006;2023-04-09T12:04:20;100744.38;;;22.73;30.13
5522;BME280;2783;48.730;8.006;2023-04-09T12:06:46;100737.31;;;23.44;28.78
5522;BME280;2783;48.730;8.006;2023-04-09T12:09:12;100744.13;;;22.76;27.98
5522;BME280;2783;48.730;8.006;2023-04-09T12:11:38;100738.16;;;22.59;28.43
5522;BME280;2783;48.730;8.006;2023-04-09T12:14:06;100740.78;;;23.47;28.54
5522;BME280;2783;48.730;8.006;2023-04-09T12:16:32;100734.28;;;24.31;30.13
5522;BME280;2783;48.730;8.006;2023-04-09T12:19:07;100736.63;;;24.70;30.14
5522;BME280;2783;48.730;8.006;2023-04-09T12:21:49;100727.16;;;24.06;28.94
5522;BME280;2783;48.730;8.006;2023-04-09T12:24:15;100745.28;;;23.10;28.49
5522;BME280;2783;48.730;8.006;2023-04-09T12:26:41;100740.41;;;22.52;32.30
5522;BME280;2783;48.730;8.006;2023-04-09T12:29:06;100737.59;;;22.54;32.93
5522;BME280;2783;48.730;8.006;2023-04-09T12:31:32;100745.00;;;22.89;31.33
5522;BME280;2783;48.730;8.006;2023-04-09T12:33:57;100731.56;;;22.11;30.00
5522;BME280;2783;48.730;8.006;2023-04-09T12:36:22;100727.34;;;21.54;32.41
5522;BME280;2783;48.730;8.006;2023-04-09T12:38:48;100720.00;;;22.22;33.88
5522;BME280;2783;48.730;8.006;2023-04-09T12:41:14;100737.78;;;22.38;31.81
5522;BME280;2783;48.730;8.006;2023-04-09T12:43:40;100727.56;;;22.29;31.15
5522;BME280;2783;48.730;8.006;2023-04-09T12:46:07;100732.84;;;21.12;32.42
5522;BME280;2783;48.730;8.006;2023-04-09T12:48:32;100728.38;;;20.54;31.34
5522;BME280;2783;48.730;8.006;2023-04-09T12:50:58;100727.06;;;21.04;33.63
5522;BME280;2783;48.730;8.006;2023-04-09T12:53:23;100720.38;;;22.03;32.21
5522;BME280;2783;48.730;8.006;2023-04-09T12:55:48;100720.16;;;22.70;32.93
5522;BME280;2783;48.730;8.006;2023-04-09T12:58:14;100723.88;;;22.17;31.11
5522;BME280;2783;48.730;8.006;2023-04-09T13:00:39;100730.53;;;22.39;32.80
5522;BME280;2783;48.730;8.006;2023-04-09T13:03:04;100725.19;;;22.12;32.24
5522;BME280;2783;48.730;8.006;2023-04-09T13:05:30;100722.06;;;21.79;31.53
5522;BME280;2783;48.730;8.006;2023-04-09T13:07:59;100722.44;;;21.73;31.45
5522;BME280;2783;48.730;8.006;2023-04-09T13:10:25;100708.75;;;22.65;30.49
5522;BME280;2783;48.730;8.006;2023-04-09T13:12:50;100709.28;;;23.68;30.35
5522;BME280;2783;48.730;8.006;2023-04-09T13:15:15;100708.16;;;23.94;29.46
5522;BME280;2783;48.730;8.006;2023-04-09T13:17:40;100707.59;;;24.36;30.01
5522;BME280;2783;48.730;8.006;2023-04-09T13:20:06;100705.31;;;25.20;28.64
5522;BME280;2783;48.730;8.006;2023-04-09T13:22:31;100697.88;;;24.66;28.44
5522;BME280;2783;48.730;8.006;2023-04-09T13:24:56;100701.84;;;24.06;29.27
5522;BME280;2783;48.730;8.006;2023-04-09T13:27:22;100703.25;;;23.15;31.56
5522;BME280;2783;48.730;8.006;2023-04-09T13:29:47;100708.66;;;22.79;32.59